Hovedside
METAR-TAF:

METAR-TAF

Lufthavner :

Guilin Liangjiang internasjonale lufthavn

Guilin, Kina

breddegrad: 25-20N, lengdegrad: 110-18E, høyde over havet: 166 m

Gjeldene værobservasjon

Denne rapporten ble laget for 33 minutter siden, klokken 19:00 UTC
Vind 2 kt fra skiftende retning
Temperatur 19°C
Luftfuktighet 83%
Trykk 1014 hPa
Sikt 10 km eller mer
Spredte skyer i en høyde av 4600 ft
Overskyet i en høyde av 6000 ft

METAR: ZGKL 151900Z VRB01MPS 9999 SCT046 OVC060 19/16 Q1014 NOSIG

Tid: 03:33 (19:33 UTC)

Varsel

Denne rapporten ble laget for 4 timer og 21 minutter siden, klokken 15:12 UTC
Varsel gyldig fra 15. klokken 18 UTC til 16. klokken 18 UTC
Vind 6 kt fra Sør
Sikt: 6000 m
Brutte skyer i en høyde av 4000 ft

TAF: ZGKL 151512Z 1518/1618 18003MPS 6000 BKN040 TX25/1608Z TN11/1522Z

Værobservasjoner og værvarsel for over 4000 flyplasser (METAR- og TAF-rapporter).

Tilgjengelige stasjoner er representert av de røde og gule prikkene på kartet.

Hold musepekeren over prikken for å se navnet på stasjonen.

Klikk så for å se værobservasjoner og -varsler.

For å forandre kartet kan du klikke på den grønne knappen med svart kryss for å zoome inn, på den grønne knappen med strek for å zoome ut, eller på de grønne pilene for å se tilstøtende kart.


METAR-TAF: